Sect Clausell, Puerto Rico
Current Conditions -  °F | °C
As of 11:50 AM on Wednesday 28 Jan 2015 (Local Time) from TJBQ Reporting Station
Scattered Clouds Scattered Clouds  
Wind Chill: 81°   Ceiling: Unl
Heat Index: 84°   Visibility: 10mi
Dew Point: 70°   Wind: 6mph
Humidity: 70%   Direction: 330°NNW
Pressure: 30.04"   Gusts: NA
Location:  18.0152°N, 66.6246°W
Report Text: TJBQ 281550Z 33005KT 10SM SCT044 27/21 A3004 RMK RWY08 ATIS N
Loading
Personal Weather Stations






























Interactive Weather Map New forecast layout! Learn more

10-Day Weather Forecast

Advertisements
Track Severe Weather on mobile